createdAt,value
2022-09-06T00:00:43.272Z,99492.22
2022-09-06T00:03:09.766Z,99491.97
2022-09-06T00:05:36.638Z,99488.22
2022-09-06T00:08:04.323Z,99505.03
2022-09-06T00:10:31.388Z,99498.94
2022-09-06T00:13:06.195Z,99505.94
2022-09-06T00:15:33.430Z,99510.06
2022-09-06T00:18:01.497Z,99490.59
2022-09-06T00:20:29.858Z,99483.03
2022-09-06T00:23:00.824Z,99487.84
2022-09-06T00:25:27.958Z,99485.63
2022-09-06T00:27:59.380Z,99464.25
2022-09-06T00:30:26.914Z,99475.47
2022-09-06T00:32:53.825Z,99495.34
2022-09-06T00:35:21.662Z,99498.47
2022-09-06T00:37:47.985Z,99484.47
2022-09-06T00:40:15.076Z,99487.56
2022-09-06T00:42:41.565Z,99495.00
2022-09-06T00:45:10.126Z,99490.53
2022-09-06T00:47:39.484Z,99503.13
2022-09-06T00:50:07.334Z,99498.81
2022-09-06T00:52:35.113Z,99488.72
2022-09-06T00:55:02.121Z,99486.06
2022-09-06T00:57:29.863Z,99478.66
2022-09-06T00:59:56.668Z,99492.53
2022-09-06T01:02:23.366Z,99484.28
2022-09-06T01:04:50.557Z,99481.50
2022-09-06T01:07:38.945Z,99493.41
2022-09-06T01:10:24.021Z,99495.91
2022-09-06T01:13:12.173Z,99497.91
2022-09-06T01:15:52.931Z,99490.88
2022-09-06T01:18:37.259Z,99499.16
2022-09-06T01:21:28.252Z,99501.25
2022-09-06T01:24:19.213Z,99495.78
2022-09-06T01:27:04.674Z,99496.91
2022-09-06T01:29:44.684Z,99495.66
2022-09-06T01:33:02.601Z,99499.03
2022-09-06T01:35:35.749Z,99498.31
2022-09-06T01:38:03.121Z,99487.41
2022-09-06T01:40:29.724Z,99490.22
2022-09-06T01:42:58.056Z,99487.56
2022-09-06T01:45:49.761Z,99474.66
2022-09-06T01:48:50.300Z,99478.72
2022-09-06T01:51:22.736Z,99480.53
2022-09-06T01:54:05.025Z,99475.66
2022-09-06T01:56:43.225Z,99484.19
2022-09-06T01:59:41.662Z,99480.69
2022-09-06T02:02:26.334Z,99472.31
2022-09-06T02:05:34.226Z,99468.19
2022-09-06T02:08:17.327Z,99470.19
2022-09-06T02:10:50.582Z,99465.28
2022-09-06T02:13:19.999Z,99449.19
2022-09-06T02:15:54.442Z,99453.94
2022-09-06T02:18:33.788Z,99461.50
2022-09-06T02:21:03.211Z,99465.84
2022-09-06T02:23:36.360Z,99451.28
2022-09-06T02:26:12.712Z,99458.00
2022-09-06T02:28:39.776Z,99447.78
2022-09-06T02:31:13.699Z,99450.84
2022-09-06T02:33:41.549Z,99443.00
2022-09-06T02:36:09.565Z,99442.19
2022-09-06T02:38:39.479Z,99455.78
2022-09-06T02:41:07.273Z,99453.56
2022-09-06T02:43:33.727Z,99438.88
2022-09-06T02:46:00.214Z,99434.94
2022-09-06T02:48:26.730Z,99450.91
2022-09-06T02:50:53.216Z,99430.47
2022-09-06T02:53:19.641Z,99410.44
2022-09-06T02:55:48.101Z,99437.75
2022-09-06T02:58:15.149Z,99429.34
2022-09-06T03:00:41.512Z,99424.28
2022-09-06T03:03:08.457Z,99432.13
2022-09-06T03:05:34.864Z,99426.28
2022-09-06T03:08:01.325Z,99436.63
2022-09-06T03:10:27.930Z,99441.13
2022-09-06T03:12:54.440Z,99429.38
2022-09-06T03:15:21.454Z,99442.94
2022-09-06T03:17:47.803Z,99434.97
2022-09-06T03:20:14.562Z,99438.47
2022-09-06T03:22:41.471Z,99436.09
2022-09-06T03:25:10.474Z,99438.88
2022-09-06T03:27:37.921Z,99444.06
2022-09-06T03:30:05.804Z,99434.28
2022-09-06T03:32:32.166Z,99433.03
2022-09-06T03:34:58.598Z,99435.25
2022-09-06T03:37:25.093Z,99422.66
2022-09-06T03:39:51.504Z,99423.63
2022-09-06T03:42:17.977Z,99415.09
2022-09-06T03:44:44.568Z,99418.19
2022-09-06T03:47:11.237Z,99425.88
2022-09-06T03:49:37.827Z,99416.22
2022-09-06T03:52:04.410Z,99413.84
2022-09-06T03:54:30.834Z,99412.88
2022-09-06T03:56:57.519Z,99425.03
2022-09-06T03:59:23.849Z,99421.13
2022-09-06T04:01:50.462Z,99416.78
2022-09-06T04:04:16.885Z,99404.69
2022-09-06T04:06:43.306Z,99404.56
2022-09-06T04:09:09.639Z,99398.69
2022-09-06T04:11:36.003Z,99389.44
2022-09-06T04:14:02.695Z,99392.81
2022-09-06T04:16:29.357Z,99389.31
2022-09-06T04:18:56.257Z,99391.81
2022-09-06T04:21:22.645Z,99395.88
2022-09-06T04:23:49.259Z,99394.38
2022-09-06T04:26:15.717Z,99397.88
2022-09-06T04:28:42.129Z,99385.94
2022-09-06T04:31:08.558Z,99384.97
2022-09-06T04:33:36.676Z,99402.22
2022-09-06T04:36:06.586Z,99383.41
2022-09-06T04:38:41.092Z,99372.97
2022-09-06T04:41:12.384Z,99384.53
2022-09-06T04:43:38.950Z,99382.88
2022-09-06T04:46:28.834Z,99376.44
2022-09-06T04:48:56.226Z,99362.72
2022-09-06T04:51:23.880Z,99376.16
2022-09-06T04:53:51.370Z,99380.66
2022-09-06T04:56:20.807Z,99372.38
2022-09-06T04:58:48.228Z,99380.22
2022-09-06T05:01:15.155Z,99352.63
2022-09-06T05:03:41.923Z,99371.66
2022-09-06T05:06:14.049Z,99381.63
2022-09-06T05:08:41.518Z,99367.78
2022-09-06T05:11:09.026Z,99376.72
2022-09-06T05:13:35.809Z,99397.44
2022-09-06T05:16:03.816Z,99405.44
2022-09-06T05:18:30.408Z,99385.41
2022-09-06T05:20:57.476Z,99395.63
2022-09-06T05:23:23.850Z,99407.25
2022-09-06T05:25:50.633Z,99412.56
2022-09-06T05:28:17.821Z,99434.41
2022-09-06T05:30:44.554Z,99411.31
2022-09-06T05:33:12.602Z,99416.06
2022-09-06T05:35:39.310Z,99415.94
2022-09-06T05:38:05.800Z,99410.31
2022-09-06T05:40:32.284Z,99411.59
2022-09-06T05:42:58.767Z,99422.53
2022-09-06T05:45:25.247Z,99414.53
2022-09-06T05:47:52.076Z,99390.16
2022-09-06T05:50:18.505Z,99407.78
2022-09-06T05:52:45.155Z,99417.31
2022-09-06T05:55:11.708Z,99421.91
2022-09-06T05:57:38.171Z,99418.84
2022-09-06T06:00:05.675Z,99419.84
2022-09-06T06:02:32.244Z,99429.91
2022-09-06T06:04:59.006Z,99423.75
2022-09-06T06:07:25.423Z,99429.34
2022-09-06T06:09:51.908Z,99454.72
2022-09-06T06:12:18.440Z,99446.75
2022-09-06T06:14:44.891Z,99447.81
2022-09-06T06:17:11.228Z,99456.66
2022-09-06T06:19:37.637Z,99449.53
2022-09-06T06:22:04.612Z,99459.44
2022-09-06T06:24:31.080Z,99460.84
2022-09-06T06:26:57.502Z,99448.22
2022-09-06T06:29:24.069Z,99446.63
2022-09-06T06:31:50.524Z,99438.66
2022-09-06T06:34:16.970Z,99419.47
2022-09-06T06:36:43.369Z,99433.16
2022-09-06T06:39:10.206Z,99426.34
2022-09-06T06:41:36.589Z,99449.28
2022-09-06T06:44:04.525Z,99446.72
2022-09-06T06:46:40.198Z,99440.44
2022-09-06T06:49:06.667Z,99435.22
2022-09-06T06:51:34.435Z,99421.59
2022-09-06T06:54:00.787Z,99424.06
2022-09-06T06:56:35.443Z,99427.81
2022-09-06T06:59:04.261Z,99410.56
2022-09-06T07:01:32.823Z,99422.59
2022-09-06T07:03:59.746Z,99420.69
2022-09-06T07:09:14.257Z,99408.44
2022-09-06T07:11:40.613Z,99414.69
2022-09-06T07:14:06.989Z,99420.94
2022-09-06T07:16:33.805Z,99410.09
2022-09-06T07:19:00.226Z,99411.50
2022-09-06T07:21:42.206Z,99416.94
2022-09-06T07:24:09.391Z,99407.13
2022-09-06T07:26:37.608Z,99410.50
2022-09-06T07:29:05.646Z,99410.34
2022-09-06T07:34:19.509Z,99397.94
2022-09-06T07:36:45.929Z,99397.31
2022-09-06T07:39:12.612Z,99385.91
2022-09-06T07:41:39.103Z,99392.28
2022-09-06T07:44:05.514Z,99396.03
2022-09-06T07:46:32.031Z,99396.31
2022-09-06T07:48:58.413Z,99392.66
2022-09-06T07:51:24.779Z,99398.50
2022-09-06T07:54:12.928Z,99405.22
2022-09-06T07:56:41.720Z,99401.84
2022-09-06T07:59:08.334Z,99399.34
2022-09-06T08:01:36.204Z,99400.03
2022-09-06T08:04:13.433Z,99407.19
2022-09-06T08:09:31.827Z,99427.78
2022-09-06T08:11:58.547Z,99441.56
2022-09-06T08:14:25.106Z,99420.38
2022-09-06T08:16:51.550Z,99405.09
2022-09-06T08:19:18.268Z,99418.97
2022-09-06T08:21:44.682Z,99425.31
2022-09-06T08:24:11.127Z,99408.50
2022-09-06T08:26:39.391Z,99421.28
2022-09-06T08:29:07.165Z,99418.75
2022-09-06T08:31:35.423Z,99412.06
2022-09-06T08:34:02.548Z,99409.63
2022-09-06T08:36:30.178Z,99400.50
2022-09-06T08:39:03.584Z,99383.66
2022-09-06T08:41:33.972Z,99390.53
2022-09-06T08:47:03.450Z,99380.81
2022-09-06T08:49:33.759Z,99379.13
2022-09-06T08:52:12.742Z,99379.47
2022-09-06T08:54:41.058Z,99381.81
2022-09-06T08:57:48.818Z,99387.88
2022-09-06T09:00:15.734Z,99393.69
2022-09-06T09:02:49.137Z,99387.03
2022-09-06T09:05:30.155Z,99385.81
2022-09-06T09:08:02.345Z,99397.06
2022-09-06T09:10:31.748Z,99394.38
2022-09-06T09:13:02.551Z,99388.06
2022-09-06T09:15:29.228Z,99375.38
2022-09-06T09:17:56.010Z,99372.38
2022-09-06T09:20:22.974Z,99385.78
2022-09-06T09:22:49.593Z,99371.22
2022-09-06T09:25:21.667Z,99379.38
2022-09-06T09:27:49.876Z,99384.22
2022-09-06T09:33:21.855Z,99376.28
2022-09-06T09:35:48.365Z,99381.16
2022-09-06T09:38:33.074Z,99363.00
2022-09-06T09:41:06.805Z,99367.06
2022-09-06T09:43:36.863Z,99354.63
2022-09-06T09:46:22.095Z,99356.66
2022-09-06T09:49:10.849Z,99347.31
2022-09-06T09:51:38.876Z,99353.28
2022-09-06T09:54:08.638Z,99339.72
2022-09-06T09:56:40.046Z,99334.25
2022-09-06T09:59:19.592Z,99338.91
2022-09-06T10:01:46.266Z,99333.72
2022-09-06T10:07:21.237Z,99317.56
2022-09-06T10:09:50.033Z,99322.41
2022-09-06T10:12:18.410Z,99314.16
2022-09-06T10:14:47.506Z,99324.81
2022-09-06T10:17:41.893Z,99309.81
2022-09-06T10:20:11.136Z,99317.94
2022-09-06T10:22:46.490Z,99323.44
2022-09-06T10:25:19.077Z,99320.38
2022-09-06T10:28:12.280Z,99313.41
2022-09-06T10:30:54.402Z,99308.16
2022-09-06T10:33:27.286Z,99324.69
2022-09-06T10:35:58.482Z,99311.34
2022-09-06T10:38:37.465Z,99316.88
2022-09-06T10:41:14.240Z,99320.69
2022-09-06T10:43:52.193Z,99321.25
2022-09-06T10:46:25.218Z,99310.97
2022-09-06T10:48:52.980Z,99310.59
2022-09-06T10:51:41.079Z,99329.94
2022-09-06T10:54:13.566Z,99320.31
2022-09-06T10:56:52.039Z,99314.13
2022-09-06T10:59:41.407Z,99310.47
2022-09-06T11:02:38.729Z,99318.34
2022-09-06T11:10:53.176Z,99309.41
2022-09-06T11:13:21.207Z,99313.06
2022-09-06T11:15:56.617Z,99312.28
2022-09-06T11:18:36.672Z,99312.25
2022-09-06T11:21:26.165Z,99312.31
2022-09-06T11:24:01.066Z,99311.88
2022-09-06T11:26:43.086Z,99306.53
2022-09-06T11:29:19.135Z,99298.00
2022-09-06T11:34:41.549Z,99305.78
2022-09-06T11:37:22.406Z,99295.13
2022-09-06T11:40:30.422Z,99294.53
2022-09-06T11:42:56.817Z,99299.13
2022-09-06T11:45:50.708Z,99291.13
2022-09-06T11:48:26.295Z,99288.94
2022-09-06T11:51:00.758Z,99287.13
2022-09-06T11:53:34.369Z,99283.38
2022-09-06T11:56:00.717Z,99282.41
2022-09-06T11:58:30.385Z,99288.41
2022-09-06T12:01:12.049Z,99291.31
2022-09-06T12:06:33.316Z,99274.31
2022-09-06T12:09:00.048Z,99265.69
2022-09-06T12:11:45.858Z,99272.75
2022-09-06T12:14:33.796Z,99266.09
2022-09-06T12:17:00.086Z,99259.88
2022-09-06T12:19:56.281Z,99254.50
2022-09-06T12:22:28.896Z,99258.81
2022-09-06T12:25:24.604Z,99255.97
2022-09-06T12:28:00.074Z,99243.53
2022-09-06T12:30:36.398Z,99244.38
2022-09-06T12:33:08.255Z,99246.22
2022-09-06T12:38:25.657Z,99235.13
2022-09-06T12:40:53.249Z,99230.09
2022-09-06T12:43:20.358Z,99226.84
2022-09-06T12:45:50.244Z,99226.50
2022-09-06T12:48:36.911Z,99220.88
2022-09-06T12:51:09.579Z,99210.38
2022-09-06T12:53:36.014Z,99212.84
2022-09-06T12:56:05.245Z,99206.44
2022-09-06T12:58:32.048Z,99199.59
2022-09-06T13:01:10.792Z,99206.41
2022-09-06T13:04:05.519Z,99202.69
2022-09-06T13:06:36.444Z,99193.56
2022-09-06T13:09:03.028Z,99203.56
2022-09-06T13:11:35.689Z,99188.16
2022-09-06T13:14:14.000Z,99189.66
2022-09-06T13:16:47.199Z,99189.00
2022-09-06T13:19:17.090Z,99189.63
2022-09-06T13:21:47.230Z,99179.44
2022-09-06T13:24:23.700Z,99188.16
2022-09-06T13:26:50.920Z,99179.03
2022-09-06T13:29:17.195Z,99189.00
2022-09-06T13:31:54.127Z,99189.00
2022-09-06T13:34:29.412Z,99188.56
2022-09-06T13:37:04.367Z,99175.50
2022-09-06T13:39:37.909Z,99180.91
2022-09-06T13:42:23.240Z,99167.22
2022-09-06T13:44:49.900Z,99170.94
2022-09-06T13:47:16.727Z,99171.78
2022-09-06T13:49:43.227Z,99163.66
2022-09-06T13:52:10.154Z,99169.91
2022-09-06T13:54:36.960Z,99158.69
2022-09-06T13:57:04.395Z,99157.63
2022-09-06T13:59:31.183Z,99146.84
2022-09-06T14:02:12.666Z,99145.16
2022-09-06T14:04:39.153Z,99150.16
2022-09-06T14:07:06.045Z,99140.19
2022-09-06T14:09:32.533Z,99145.81
2022-09-06T14:11:59.038Z,99146.22
2022-09-06T14:14:25.774Z,99142.47
2022-09-06T14:16:52.124Z,99144.75
2022-09-06T14:19:18.530Z,99142.72
2022-09-06T14:21:45.128Z,99145.41
2022-09-06T14:24:11.904Z,99157.00
2022-09-06T14:26:38.792Z,99145.38
2022-09-06T14:29:05.679Z,99130.03
2022-09-06T14:31:32.413Z,99146.41
2022-09-06T14:33:59.715Z,99148.91
2022-09-06T14:36:28.216Z,99148.06
2022-09-06T14:38:56.371Z,99144.75
2022-09-06T14:41:23.107Z,99143.09
2022-09-06T14:43:51.849Z,99143.09
2022-09-06T14:46:20.398Z,99143.72
2022-09-06T14:48:46.776Z,99143.72
2022-09-06T14:51:15.417Z,99134.41
2022-09-06T14:53:43.389Z,99137.50
2022-09-06T14:56:11.890Z,99136.84
2022-09-06T14:58:40.323Z,99137.06
2022-09-06T15:01:28.490Z,99129.59
2022-09-06T15:03:57.886Z,99125.03
2022-09-06T15:06:25.897Z,99123.16
2022-09-06T15:08:56.919Z,99116.53
2022-09-06T15:11:34.316Z,99117.38
2022-09-06T15:14:05.245Z,99112.78
2022-09-06T15:16:32.523Z,99112.56
2022-09-06T15:18:59.138Z,99115.28
2022-09-06T15:21:25.962Z,99106.75
2022-09-06T15:23:52.863Z,99099.81
2022-09-06T15:26:19.849Z,99106.28
2022-09-06T15:28:46.471Z,99108.78
2022-09-06T15:31:13.758Z,99093.59
2022-09-06T15:33:40.426Z,99106.91
2022-09-06T15:36:09.373Z,99096.69
2022-09-06T15:38:42.776Z,99104.16
2022-09-06T15:41:12.583Z,99095.69
2022-09-06T15:43:41.842Z,99099.25
2022-09-06T15:46:09.455Z,99081.63
2022-09-06T15:48:45.169Z,99103.00
2022-09-06T15:51:13.853Z,99103.00
2022-09-06T15:53:40.693Z,99092.00
2022-09-06T15:56:09.384Z,99102.56
2022-09-06T15:58:35.826Z,99094.25
2022-09-06T16:01:12.073Z,99089.50
2022-09-06T16:03:41.707Z,99104.63
2022-09-06T16:06:27.421Z,99090.50
2022-09-06T16:09:00.438Z,99089.09
2022-09-06T16:11:28.702Z,99096.38
2022-09-06T16:13:55.736Z,99092.66
2022-09-06T16:16:22.424Z,99081.63
2022-09-06T16:18:49.212Z,99087.44
2022-09-06T16:21:22.387Z,99090.16
2022-09-06T16:23:54.166Z,99088.50
2022-09-06T16:26:22.803Z,99085.59
2022-09-06T16:28:51.350Z,99097.88
2022-09-06T16:31:18.888Z,99080.84
2022-09-06T16:33:45.309Z,99078.56
2022-09-06T16:36:12.799Z,99078.56
2022-09-06T16:38:39.944Z,99081.44
2022-09-06T16:41:16.398Z,99068.81
2022-09-06T16:43:44.059Z,99078.13
2022-09-06T16:46:10.886Z,99068.81
2022-09-06T16:48:37.554Z,99084.75
2022-09-06T16:51:16.073Z,99089.94
2022-09-06T16:53:44.922Z,99093.69
2022-09-06T16:56:13.140Z,99087.66
2022-09-06T16:58:39.701Z,99081.44
2022-09-06T17:01:06.827Z,99086.78
2022-09-06T17:03:34.923Z,99076.44
2022-09-06T17:06:01.470Z,99089.06
2022-09-06T17:08:28.006Z,99078.69
2022-09-06T17:10:54.685Z,99087.97
2022-09-06T17:13:21.385Z,99081.03
2022-09-06T17:15:54.694Z,99093.44
2022-09-06T17:18:24.339Z,99097.34
2022-09-06T17:20:58.726Z,99090.66
2022-09-06T17:23:25.296Z,99088.56
2022-09-06T17:25:51.951Z,99091.72
2022-09-06T17:28:18.581Z,99099.53
2022-09-06T17:30:45.065Z,99095.44
2022-09-06T17:33:11.855Z,99098.84
2022-09-06T17:35:38.258Z,99100.91
2022-09-06T17:38:04.880Z,99085.03
2022-09-06T17:40:31.245Z,99088.94
2022-09-06T17:42:57.577Z,99102.13
2022-09-06T17:45:24.002Z,99104.53
2022-09-06T17:47:50.411Z,99098.50
2022-09-06T17:50:16.774Z,99105.88
2022-09-06T17:52:43.211Z,99112.28
2022-09-06T17:55:09.551Z,99100.44
2022-09-06T17:57:36.290Z,99109.47
2022-09-06T18:00:03.710Z,99115.00
2022-09-06T18:02:30.042Z,99099.94
2022-09-06T18:05:00.111Z,99115.41
2022-09-06T18:07:26.887Z,99117.38
2022-09-06T18:09:53.220Z,99110.22
2022-09-06T18:12:19.637Z,99119.84
2022-09-06T18:14:46.122Z,99110.72
2022-09-06T18:17:12.469Z,99117.28
2022-09-06T18:19:38.822Z,99123.59
2022-09-06T18:22:05.237Z,99122.31
2022-09-06T18:24:31.916Z,99125.38
2022-09-06T18:26:58.269Z,99123.44
2022-09-06T18:29:25.014Z,99125.50
2022-09-06T18:31:51.446Z,99134.06
2022-09-06T18:34:17.947Z,99122.41
2022-09-06T18:36:44.774Z,99139.53
2022-09-06T18:39:12.649Z,99134.44
2022-09-06T18:41:39.054Z,99130.84
2022-09-06T18:44:06.370Z,99130.94
2022-09-06T18:46:35.044Z,99138.31
2022-09-06T18:49:01.752Z,99139.25
2022-09-06T18:51:28.573Z,99150.16
2022-09-06T18:53:57.646Z,99169.31
2022-09-06T18:56:25.037Z,99163.31
2022-09-06T18:58:57.328Z,99156.16
2022-09-06T19:01:24.931Z,99159.66
2022-09-06T19:03:51.388Z,99149.22
2022-09-06T19:06:20.419Z,99152.91
2022-09-06T19:08:48.313Z,99156.25
2022-09-06T19:11:17.139Z,99158.63
2022-09-06T19:13:45.540Z,99156.28
2022-09-06T19:16:14.003Z,99151.63
2022-09-06T19:18:41.546Z,99154.50
2022-09-06T19:21:13.321Z,99145.88
2022-09-06T19:23:44.967Z,99146.91
2022-09-06T19:26:17.519Z,99147.63
2022-09-06T19:28:52.494Z,99152.13
2022-09-06T19:31:19.505Z,99154.16
2022-09-06T19:33:49.141Z,99154.34
2022-09-06T19:36:16.897Z,99152.03
2022-09-06T19:41:31.279Z,99129.50
2022-09-06T19:43:58.795Z,99131.19
2022-09-06T19:46:25.585Z,99126.72
2022-09-06T19:48:53.833Z,99128.91
2022-09-06T19:51:20.746Z,99127.94
2022-09-06T19:53:49.807Z,99130.50
2022-09-06T19:56:18.550Z,99134.19
2022-09-06T19:58:45.271Z,99124.50
2022-09-06T20:01:13.309Z,99123.38
2022-09-06T20:03:39.676Z,99116.06
2022-09-06T20:06:06.529Z,99123.78
2022-09-06T20:08:34.317Z,99115.91
2022-09-06T20:11:01.533Z,99129.31
2022-09-06T20:13:29.864Z,99114.63
2022-09-06T20:15:56.713Z,99119.13
2022-09-06T20:18:23.408Z,99117.28
2022-09-06T20:20:55.164Z,99117.63
2022-09-06T20:23:22.506Z,99109.09
2022-09-06T20:25:58.244Z,99103.97
2022-09-06T20:28:24.609Z,99094.31
2022-09-06T20:30:51.203Z,99103.00
2022-09-06T20:33:17.985Z,99096.81
2022-09-06T20:35:52.948Z,99094.50
2022-09-06T20:38:19.616Z,99097.34
2022-09-06T20:40:46.014Z,99104.34
2022-09-06T20:43:12.416Z,99092.69
2022-09-06T20:45:38.945Z,99091.34
2022-09-06T20:48:05.518Z,99094.84
2022-09-06T20:50:32.105Z,99092.53
2022-09-06T20:52:58.544Z,99088.56
2022-09-06T20:55:25.127Z,99088.56
2022-09-06T20:57:51.604Z,99089.38
2022-09-06T21:00:18.020Z,99091.53
2022-09-06T21:02:44.345Z,99086.31
2022-09-06T21:05:11.046Z,99090.00
2022-09-06T21:07:37.767Z,99081.69
2022-09-06T21:10:04.538Z,99082.34
2022-09-06T21:12:30.948Z,99096.59
2022-09-06T21:14:57.698Z,99088.22
2022-09-06T21:17:24.292Z,99088.56
2022-09-06T21:19:50.779Z,99098.78
2022-09-06T21:22:17.191Z,99098.97
2022-09-06T21:24:43.793Z,99100.81
2022-09-06T21:27:10.430Z,99104.63
2022-09-06T21:29:36.847Z,99094.31
2022-09-06T21:32:03.491Z,99114.84
2022-09-06T21:34:29.822Z,99098.81
2022-09-06T21:36:56.283Z,99107.19
2022-09-06T21:39:22.628Z,99119.06
2022-09-06T21:41:49.171Z,99105.84
2022-09-06T21:44:15.501Z,99107.69
2022-09-06T21:46:42.289Z,99130.59
2022-09-06T21:49:11.871Z,99132.75
2022-09-06T21:51:38.498Z,99119.91
2022-09-06T21:54:05.754Z,99125.25
2022-09-06T21:56:33.766Z,99134.44
2022-09-06T21:59:00.204Z,99124.25
2022-09-06T22:01:29.387Z,99117.09
2022-09-06T22:03:55.797Z,99112.25
2022-09-06T22:06:24.609Z,99123.75
2022-09-06T22:08:52.067Z,99115.75
2022-09-06T22:11:24.584Z,99129.94
2022-09-06T22:13:51.910Z,99131.78
2022-09-06T22:16:20.777Z,99115.38
2022-09-06T22:18:48.301Z,99126.25
2022-09-06T22:21:17.697Z,99109.53
2022-09-06T22:23:56.489Z,99111.38
2022-09-06T22:26:24.222Z,99100.00
2022-09-06T22:29:01.915Z,99112.19
2022-09-06T22:31:30.205Z,99106.84
2022-09-06T22:33:56.754Z,99093.47
2022-09-06T22:36:24.025Z,99095.50
2022-09-06T22:38:51.635Z,99091.16
2022-09-06T22:41:18.203Z,99101.50
2022-09-06T22:43:44.974Z,99088.81
2022-09-06T22:46:11.693Z,99094.16
2022-09-06T22:48:38.404Z,99087.28
2022-09-06T22:51:05.820Z,99083.47
2022-09-06T22:53:32.977Z,99092.78
2022-09-06T22:55:59.840Z,99088.13
2022-09-06T22:58:26.633Z,99088.44
2022-09-06T23:00:53.958Z,99083.44
2022-09-06T23:03:20.729Z,99086.09
2022-09-06T23:05:47.245Z,99069.41
2022-09-06T23:08:14.335Z,99063.38
2022-09-06T23:10:42.202Z,99077.44
2022-09-06T23:13:09.878Z,99073.41
2022-09-06T23:15:38.127Z,99058.38
2022-09-06T23:18:04.926Z,99053.53
2022-09-06T23:20:31.715Z,99055.34
2022-09-06T23:22:58.585Z,99050.84
2022-09-06T23:25:24.906Z,99056.19
2022-09-06T23:27:51.651Z,99048.47
2022-09-06T23:30:18.906Z,99053.66
2022-09-06T23:32:45.296Z,99051.69
2022-09-06T23:35:11.749Z,99037.31
2022-09-06T23:37:40.778Z,99048.31
2022-09-06T23:40:09.258Z,99046.31
2022-09-06T23:42:39.064Z,99043.63
2022-09-06T23:45:07.117Z,99052.81
2022-09-06T23:47:34.388Z,99032.75
2022-09-06T23:50:01.031Z,99047.25
2022-09-06T23:52:27.378Z,99034.88
2022-09-06T23:54:54.082Z,99039.38
2022-09-06T23:57:21.050Z,99041.41
2022-09-06T23:59:47.990Z,99019.34
